sensor_id;sensor_type;location;lat;lon;timestamp;temperature;humidity
45435;DHT22;31183;47.404;8.500;2024-03-07T00:00:06;5.20;99.90
45435;DHT22;31183;47.404;8.500;2024-03-07T00:02:46;5.10;99.90
45435;DHT22;31183;47.404;8.500;2024-03-07T00:05:20;5.10;99.90
45435;DHT22;31183;47.404;8.500;2024-03-07T00:07:47;5.10;99.90
45435;DHT22;31183;47.404;8.500;2024-03-07T00:10:14;5.10;99.90
45435;DHT22;31183;47.404;8.500;2024-03-07T00:12:42;5.10;99.90
45435;DHT22;31183;47.404;8.500;2024-03-07T00:15:10;5.10;99.90
45435;DHT22;31183;47.404;8.500;2024-03-07T00:17:38;5.10;99.90
45435;DHT22;31183;47.404;8.500;2024-03-07T00:20:06;5.10;99.90
45435;DHT22;31183;47.404;8.500;2024-03-07T00:22:36;5.10;99.90
45435;DHT22;31183;47.404;8.500;2024-03-07T00:25:04;5.20;99.90
45435;DHT22;31183;47.404;8.500;2024-03-07T00:27:36;5.20;99.90
45435;DHT22;31183;47.404;8.500;2024-03-07T00:30:03;5.20;99.90
45435;DHT22;31183;47.404;8.500;2024-03-07T00:32:31;5.20;99.90
45435;DHT22;31183;47.404;8.500;2024-03-07T00:35:02;5.20;99.90
45435;DHT22;31183;47.404;8.500;2024-03-07T00:37:32;5.20;99.90
45435;DHT22;31183;47.404;8.500;2024-03-07T00:39:58;5.20;99.90
45435;DHT22;31183;47.404;8.500;2024-03-07T00:42:25;5.20;99.90
45435;DHT22;31183;47.404;8.500;2024-03-07T00:44:53;5.10;99.90
45435;DHT22;31183;47.404;8.500;2024-03-07T00:47:20;5.10;99.90
45435;DHT22;31183;47.404;8.500;2024-03-07T00:49:47;5.10;99.90
45435;DHT22;31183;47.404;8.500;2024-03-07T00:52:14;5.10;99.90
45435;DHT22;31183;47.404;8.500;2024-03-07T00:54:42;5.10;99.90
45435;DHT22;31183;47.404;8.500;2024-03-07T00:57:09;5.10;99.90
45435;DHT22;31183;47.404;8.500;2024-03-07T00:59:36;5.00;99.90
45435;DHT22;31183;47.404;8.500;2024-03-07T01:02:02;4.90;99.90
45435;DHT22;31183;47.404;8.500;2024-03-07T01:04:30;4.90;99.90
45435;DHT22;31183;47.404;8.500;2024-03-07T01:07:00;4.90;99.90
45435;DHT22;31183;47.404;8.500;2024-03-07T01:09:27;4.90;99.90
45435;DHT22;31183;47.404;8.500;2024-03-07T01:11:57;4.90;99.90
45435;DHT22;31183;47.404;8.500;2024-03-07T01:14:26;4.90;99.90
45435;DHT22;31183;47.404;8.500;2024-03-07T01:16:53;4.90;99.90
45435;DHT22;31183;47.404;8.500;2024-03-07T01:19:20;4.80;99.90
45435;DHT22;31183;47.404;8.500;2024-03-07T01:21:47;4.80;99.90
45435;DHT22;31183;47.404;8.500;2024-03-07T01:24:14;4.80;99.90
45435;DHT22;31183;47.404;8.500;2024-03-07T01:26:44;4.70;99.90
45435;DHT22;31183;47.404;8.500;2024-03-07T01:29:11;4.70;99.90
45435;DHT22;31183;47.404;8.500;2024-03-07T01:31:38;4.70;99.90
45435;DHT22;31183;47.404;8.500;2024-03-07T01:34:04;4.70;99.90
45435;DHT22;31183;47.404;8.500;2024-03-07T01:36:31;4.70;99.90
45435;DHT22;31183;47.404;8.500;2024-03-07T01:38:58;4.70;99.90
45435;DHT22;31183;47.404;8.500;2024-03-07T01:41:25;4.70;99.90
45435;DHT22;31183;47.404;8.500;2024-03-07T01:43:51;4.70;99.90
45435;DHT22;31183;47.404;8.500;2024-03-07T01:46:18;4.80;99.90
45435;DHT22;31183;47.404;8.500;2024-03-07T01:48:46;4.80;99.90
45435;DHT22;31183;47.404;8.500;2024-03-07T01:51:15;4.70;99.90
45435;DHT22;31183;47.404;8.500;2024-03-07T01:53:41;4.70;99.90
45435;DHT22;31183;47.404;8.500;2024-03-07T01:56:08;4.60;99.90
45435;DHT22;31183;47.404;8.500;2024-03-07T01:58:36;4.70;99.90
45435;DHT22;31183;47.404;8.500;2024-03-07T02:01:03;4.70;99.90
45435;DHT22;31183;47.404;8.500;2024-03-07T02:03:30;4.70;99.90
45435;DHT22;31183;47.404;8.500;2024-03-07T02:05:57;4.60;99.90
45435;DHT22;31183;47.404;8.500;2024-03-07T02:08:23;4.70;99.90
45435;DHT22;31183;47.404;8.500;2024-03-07T02:10:50;4.70;99.90
45435;DHT22;31183;47.404;8.500;2024-03-07T02:13:17;4.80;99.90
45435;DHT22;31183;47.404;8.500;2024-03-07T02:15:43;4.70;99.90
45435;DHT22;31183;47.404;8.500;2024-03-07T02:18:10;4.80;99.90
45435;DHT22;31183;47.404;8.500;2024-03-07T02:20:37;4.80;99.90
45435;DHT22;31183;47.404;8.500;2024-03-07T02:23:04;4.80;99.90
45435;DHT22;31183;47.404;8.500;2024-03-07T02:25:31;4.80;99.90
45435;DHT22;31183;47.404;8.500;2024-03-07T02:27:59;4.80;99.90
45435;DHT22;31183;47.404;8.500;2024-03-07T02:30:26;4.90;99.90
45435;DHT22;31183;47.404;8.500;2024-03-07T02:32:53;4.90;99.90
45435;DHT22;31183;47.404;8.500;2024-03-07T02:35:22;4.90;99.90
45435;DHT22;31183;47.404;8.500;2024-03-07T02:37:49;4.80;99.90
45435;DHT22;31183;47.404;8.500;2024-03-07T02:40:16;4.80;99.90
45435;DHT22;31183;47.404;8.500;2024-03-07T02:42:43;4.80;99.90
45435;DHT22;31183;47.404;8.500;2024-03-07T02:45:11;4.80;99.90
45435;DHT22;31183;47.404;8.500;2024-03-07T02:47:41;4.60;99.90
45435;DHT22;31183;47.404;8.500;2024-03-07T02:50:09;4.60;99.90
45435;DHT22;31183;47.404;8.500;2024-03-07T02:52:37;4.60;99.90
45435;DHT22;31183;47.404;8.500;2024-03-07T02:55:04;4.70;99.90
45435;DHT22;31183;47.404;8.500;2024-03-07T02:57:31;4.60;99.90
45435;DHT22;31183;47.404;8.500;2024-03-07T02:59:58;4.60;99.90
45435;DHT22;31183;47.404;8.500;2024-03-07T03:02:25;4.70;99.90
45435;DHT22;31183;47.404;8.500;2024-03-07T03:04:52;4.70;99.90
45435;DHT22;31183;47.404;8.500;2024-03-07T03:07:19;4.70;99.90
45435;DHT22;31183;47.404;8.500;2024-03-07T03:09:46;4.80;99.90
45435;DHT22;31183;47.404;8.500;2024-03-07T03:12:13;4.80;99.90
45435;DHT22;31183;47.404;8.500;2024-03-07T03:14:40;4.90;99.90
45435;DHT22;31183;47.404;8.500;2024-03-07T03:17:06;4.90;99.90
45435;DHT22;31183;47.404;8.500;2024-03-07T03:19:35;4.90;99.90
45435;DHT22;31183;47.404;8.500;2024-03-07T03:22:02;4.90;99.90
45435;DHT22;31183;47.404;8.500;2024-03-07T03:24:30;4.90;99.90
45435;DHT22;31183;47.404;8.500;2024-03-07T03:26:57;4.80;99.90
45435;DHT22;31183;47.404;8.500;2024-03-07T03:29:24;4.80;99.90
45435;DHT22;31183;47.404;8.500;2024-03-07T03:31:50;4.90;99.90
45435;DHT22;31183;47.404;8.500;2024-03-07T03:34:17;4.80;99.90
45435;DHT22;31183;47.404;8.500;2024-03-07T03:36:43;4.90;99.90
45435;DHT22;31183;47.404;8.500;2024-03-07T03:39:10;4.90;99.90
45435;DHT22;31183;47.404;8.500;2024-03-07T03:41:39;4.90;99.90
45435;DHT22;31183;47.404;8.500;2024-03-07T03:44:06;4.90;99.90
45435;DHT22;31183;47.404;8.500;2024-03-07T03:46:33;4.80;99.90
45435;DHT22;31183;47.404;8.500;2024-03-07T03:49:00;4.80;99.90
45435;DHT22;31183;47.404;8.500;2024-03-07T03:51:26;4.70;99.90
45435;DHT22;31183;47.404;8.500;2024-03-07T03:53:53;4.60;99.90
45435;DHT22;31183;47.404;8.500;2024-03-07T03:56:20;4.60;99.90
45435;DHT22;31183;47.404;8.500;2024-03-07T03:58:47;4.60;99.90
45435;DHT22;31183;47.404;8.500;2024-03-07T04:01:13;4.60;99.90
45435;DHT22;31183;47.404;8.500;2024-03-07T04:03:41;4.60;99.90
45435;DHT22;31183;47.404;8.500;2024-03-07T04:06:08;4.60;99.90
45435;DHT22;31183;47.404;8.500;2024-03-07T04:08:35;4.70;99.90
45435;DHT22;31183;47.404;8.500;2024-03-07T04:11:04;4.70;99.90
45435;DHT22;31183;47.404;8.500;2024-03-07T04:13:31;4.70;99.90
45435;DHT22;31183;47.404;8.500;2024-03-07T04:15:58;4.70;99.90
45435;DHT22;31183;47.404;8.500;2024-03-07T04:18:25;4.70;99.90
45435;DHT22;31183;47.404;8.500;2024-03-07T04:20:53;4.60;99.90
45435;DHT22;31183;47.404;8.500;2024-03-07T04:23:21;4.60;99.90
45435;DHT22;31183;47.404;8.500;2024-03-07T04:25:47;4.60;99.90
45435;DHT22;31183;47.404;8.500;2024-03-07T04:28:14;4.60;99.90
45435;DHT22;31183;47.404;8.500;2024-03-07T04:30:41;4.60;99.90
45435;DHT22;31183;47.404;8.500;2024-03-07T04:33:09;4.70;99.90
45435;DHT22;31183;47.404;8.500;2024-03-07T04:35:35;4.70;99.90
45435;DHT22;31183;47.404;8.500;2024-03-07T04:38:02;4.80;99.90
45435;DHT22;31183;47.404;8.500;2024-03-07T04:40:29;4.80;99.90
45435;DHT22;31183;47.404;8.500;2024-03-07T04:42:56;4.80;99.90
45435;DHT22;31183;47.404;8.500;2024-03-07T04:45:23;4.80;99.90
45435;DHT22;31183;47.404;8.500;2024-03-07T04:47:49;4.80;99.90
45435;DHT22;31183;47.404;8.500;2024-03-07T04:50:17;4.70;99.90
45435;DHT22;31183;47.404;8.500;2024-03-07T04:52:45;4.80;99.90
45435;DHT22;31183;47.404;8.500;2024-03-07T04:55:12;4.80;99.90
45435;DHT22;31183;47.404;8.500;2024-03-07T04:57:39;4.90;99.90
45435;DHT22;31183;47.404;8.500;2024-03-07T05:00:08;4.90;99.90
45435;DHT22;31183;47.404;8.500;2024-03-07T05:02:41;4.90;99.90
45435;DHT22;31183;47.404;8.500;2024-03-07T05:05:08;4.80;99.90
45435;DHT22;31183;47.404;8.500;2024-03-07T05:07:34;4.80;99.90
45435;DHT22;31183;47.404;8.500;2024-03-07T05:10:06;4.80;99.90
45435;DHT22;31183;47.404;8.500;2024-03-07T05:12:33;4.90;99.90
45435;DHT22;31183;47.404;8.500;2024-03-07T05:15:00;4.90;99.90
45435;DHT22;31183;47.404;8.500;2024-03-07T05:17:27;5.00;99.90
45435;DHT22;31183;47.404;8.500;2024-03-07T05:19:55;5.10;99.90
45435;DHT22;31183;47.404;8.500;2024-03-07T05:22:22;5.10;99.90
45435;DHT22;31183;47.404;8.500;2024-03-07T05:24:52;5.10;99.90
45435;DHT22;31183;47.404;8.500;2024-03-07T05:27:23;5.20;99.90
45435;DHT22;31183;47.404;8.500;2024-03-07T05:29:50;5.20;99.90
45435;DHT22;31183;47.404;8.500;2024-03-07T05:32:25;5.20;99.90
45435;DHT22;31183;47.404;8.500;2024-03-07T05:34:55;5.20;99.90
45435;DHT22;31183;47.404;8.500;2024-03-07T05:37:22;5.20;99.90
45435;DHT22;31183;47.404;8.500;2024-03-07T05:39:50;5.10;99.90
45435;DHT22;31183;47.404;8.500;2024-03-07T05:42:18;5.10;99.90
45435;DHT22;31183;47.404;8.500;2024-03-07T05:44:45;5.10;99.90
45435;DHT22;31183;47.404;8.500;2024-03-07T05:47:12;5.10;99.90
45435;DHT22;31183;47.404;8.500;2024-03-07T05:49:43;5.00;99.90
45435;DHT22;31183;47.404;8.500;2024-03-07T05:52:10;5.00;99.90
45435;DHT22;31183;47.404;8.500;2024-03-07T05:54:36;5.10;99.90
45435;DHT22;31183;47.404;8.500;2024-03-07T05:57:03;5.10;99.90
45435;DHT22;31183;47.404;8.500;2024-03-07T05:59:33;5.10;99.90
45435;DHT22;31183;47.404;8.500;2024-03-07T06:01:59;5.10;99.90
45435;DHT22;31183;47.404;8.500;2024-03-07T06:04:26;5.10;99.90
45435;DHT22;31183;47.404;8.500;2024-03-07T06:06:53;5.10;99.90
45435;DHT22;31183;47.404;8.500;2024-03-07T06:09:20;5.20;99.90
45435;DHT22;31183;47.404;8.500;2024-03-07T06:11:50;5.20;99.90
45435;DHT22;31183;47.404;8.500;2024-03-07T06:14:17;5.20;99.90
45435;DHT22;31183;47.404;8.500;2024-03-07T06:16:44;5.30;99.90
45435;DHT22;31183;47.404;8.500;2024-03-07T06:19:11;5.30;99.90
45435;DHT22;31183;47.404;8.500;2024-03-07T06:21:39;5.40;99.90
45435;DHT22;31183;47.404;8.500;2024-03-07T06:24:08;5.40;99.90
45435;DHT22;31183;47.404;8.500;2024-03-07T06:26:37;5.40;99.90
45435;DHT22;31183;47.404;8.500;2024-03-07T06:29:17;5.40;99.90
45435;DHT22;31183;47.404;8.500;2024-03-07T06:31:45;5.40;99.90
45435;DHT22;31183;47.404;8.500;2024-03-07T06:34:16;5.30;99.90
45435;DHT22;31183;47.404;8.500;2024-03-07T06:36:44;5.40;99.90
45435;DHT22;31183;47.404;8.500;2024-03-07T06:39:10;5.30;99.90
45435;DHT22;31183;47.404;8.500;2024-03-07T06:41:38;5.30;99.90
45435;DHT22;31183;47.404;8.500;2024-03-07T06:44:05;5.30;99.90
45435;DHT22;31183;47.404;8.500;2024-03-07T06:46:32;5.30;99.90
45435;DHT22;31183;47.404;8.500;2024-03-07T06:49:00;5.30;99.90
45435;DHT22;31183;47.404;8.500;2024-03-07T06:51:27;5.20;99.90
45435;DHT22;31183;47.404;8.500;2024-03-07T06:53:54;5.20;99.90
45435;DHT22;31183;47.404;8.500;2024-03-07T06:56:22;5.10;99.90
45435;DHT22;31183;47.404;8.500;2024-03-07T06:58:50;5.10;99.90
45435;DHT22;31183;47.404;8.500;2024-03-07T07:01:17;5.20;99.90
45435;DHT22;31183;47.404;8.500;2024-03-07T07:03:45;5.30;99.90
45435;DHT22;31183;47.404;8.500;2024-03-07T07:06:12;5.30;99.90
45435;DHT22;31183;47.404;8.500;2024-03-07T07:08:39;5.30;99.90
45435;DHT22;31183;47.404;8.500;2024-03-07T07:11:06;5.30;99.90
45435;DHT22;31183;47.404;8.500;2024-03-07T07:13:33;5.30;99.90
45435;DHT22;31183;47.404;8.500;2024-03-07T07:16:00;5.30;99.90
45435;DHT22;31183;47.404;8.500;2024-03-07T07:18:28;5.30;99.90
45435;DHT22;31183;47.404;8.500;2024-03-07T07:20:55;5.30;99.90
45435;DHT22;31183;47.404;8.500;2024-03-07T07:23:23;5.10;99.90
45435;DHT22;31183;47.404;8.500;2024-03-07T07:25:50;5.10;99.90
45435;DHT22;31183;47.404;8.500;2024-03-07T07:28:16;5.10;99.90
45435;DHT22;31183;47.404;8.500;2024-03-07T07:30:43;5.10;99.90
45435;DHT22;31183;47.404;8.500;2024-03-07T07:33:12;5.00;99.90
45435;DHT22;31183;47.404;8.500;2024-03-07T07:35:40;5.10;99.90
45435;DHT22;31183;47.404;8.500;2024-03-07T07:38:07;5.10;99.90
45435;DHT22;31183;47.404;8.500;2024-03-07T07:40:36;5.20;99.90
45435;DHT22;31183;47.404;8.500;2024-03-07T07:43:03;5.30;99.90
45435;DHT22;31183;47.404;8.500;2024-03-07T07:45:30;5.30;99.90
45435;DHT22;31183;47.404;8.500;2024-03-07T07:47:58;5.20;99.90
45435;DHT22;31183;47.404;8.500;2024-03-07T07:50:25;5.20;99.90
45435;DHT22;31183;47.404;8.500;2024-03-07T07:52:54;5.20;99.90
45435;DHT22;31183;47.404;8.500;2024-03-07T07:55:22;5.30;99.90
45435;DHT22;31183;47.404;8.500;2024-03-07T07:57:52;5.30;99.90
45435;DHT22;31183;47.404;8.500;2024-03-07T08:00:22;5.30;99.90
45435;DHT22;31183;47.404;8.500;2024-03-07T08:02:53;5.30;99.90
45435;DHT22;31183;47.404;8.500;2024-03-07T08:05:22;5.30;99.90
45435;DHT22;31183;47.404;8.500;2024-03-07T08:07:53;5.20;99.90
45435;DHT22;31183;47.404;8.500;2024-03-07T08:10:23;5.10;99.90
45435;DHT22;31183;47.404;8.500;2024-03-07T08:12:50;5.00;99.90
45435;DHT22;31183;47.404;8.500;2024-03-07T08:15:16;5.00;99.90
45435;DHT22;31183;47.404;8.500;2024-03-07T08:17:44;5.00;99.90
45435;DHT22;31183;47.404;8.500;2024-03-07T08:20:13;4.90;99.90
45435;DHT22;31183;47.404;8.500;2024-03-07T08:22:41;4.90;99.90
45435;DHT22;31183;47.404;8.500;2024-03-07T08:25:13;4.90;99.90
45435;DHT22;31183;47.404;8.500;2024-03-07T08:27:44;4.90;99.90
45435;DHT22;31183;47.404;8.500;2024-03-07T08:30:12;4.90;99.90
45435;DHT22;31183;47.404;8.500;2024-03-07T08:32:44;4.90;99.90
45435;DHT22;31183;47.404;8.500;2024-03-07T08:35:11;4.80;99.90
45435;DHT22;31183;47.404;8.500;2024-03-07T08:38:04;4.80;99.90
45435;DHT22;31183;47.404;8.500;2024-03-07T08:40:31;5.00;99.90
45435;DHT22;31183;47.404;8.500;2024-03-07T08:43:00;5.10;99.90
45435;DHT22;31183;47.404;8.500;2024-03-07T08:45:28;5.10;99.90
45435;DHT22;31183;47.404;8.500;2024-03-07T08:47:56;5.10;99.90
45435;DHT22;31183;47.404;8.500;2024-03-07T08:50:26;5.10;99.90
45435;DHT22;31183;47.404;8.500;2024-03-07T08:52:54;5.10;99.90
45435;DHT22;31183;47.404;8.500;2024-03-07T08:55:24;5.20;99.90
45435;DHT22;31183;47.404;8.500;2024-03-07T08:57:53;5.20;99.90
45435;DHT22;31183;47.404;8.500;2024-03-07T09:00:20;5.10;99.90
45435;DHT22;31183;47.404;8.500;2024-03-07T09:02:57;5.20;99.90
45435;DHT22;31183;47.404;8.500;2024-03-07T09:05:27;5.20;99.90
45435;DHT22;31183;47.404;8.500;2024-03-07T09:07:54;5.20;99.90
45435;DHT22;31183;47.404;8.500;2024-03-07T09:10:21;5.20;99.90
45435;DHT22;31183;47.404;8.500;2024-03-07T09:12:50;5.30;99.90
45435;DHT22;31183;47.404;8.500;2024-03-07T09:15:18;5.30;99.90
45435;DHT22;31183;47.404;8.500;2024-03-07T09:17:47;5.30;99.90
45435;DHT22;31183;47.404;8.500;2024-03-07T09:20:14;5.30;99.90
45435;DHT22;31183;47.404;8.500;2024-03-07T09:22:45;5.20;99.90
45435;DHT22;31183;47.404;8.500;2024-03-07T09:25:11;5.20;99.90
45435;DHT22;31183;47.404;8.500;2024-03-07T09:27:42;5.10;99.90
45435;DHT22;31183;47.404;8.500;2024-03-07T09:30:09;5.10;99.90
45435;DHT22;31183;47.404;8.500;2024-03-07T09:32:41;5.20;99.90
45435;DHT22;31183;47.404;8.500;2024-03-07T09:35:09;5.20;99.90
45435;DHT22;31183;47.404;8.500;2024-03-07T09:37:41;5.10;99.90
45435;DHT22;31183;47.404;8.500;2024-03-07T09:40:10;5.00;99.90
45435;DHT22;31183;47.404;8.500;2024-03-07T09:42:47;5.00;99.90
45435;DHT22;31183;47.404;8.500;2024-03-07T09:45:17;5.10;99.90
45435;DHT22;31183;47.404;8.500;2024-03-07T09:47:48;5.20;99.90
45435;DHT22;31183;47.404;8.500;2024-03-07T09:50:17;5.20;99.90
45435;DHT22;31183;47.404;8.500;2024-03-07T09:52:46;5.30;99.90
45435;DHT22;31183;47.404;8.500;2024-03-07T09:55:17;5.40;99.90
45435;DHT22;31183;47.404;8.500;2024-03-07T09:57:46;5.50;99.90
45435;DHT22;31183;47.404;8.500;2024-03-07T10:00:16;5.50;99.90
45435;DHT22;31183;47.404;8.500;2024-03-07T10:02:53;5.50;99.90
45435;DHT22;31183;47.404;8.500;2024-03-07T10:05:22;5.50;99.90
45435;DHT22;31183;47.404;8.500;2024-03-07T10:07:50;5.40;99.90
45435;DHT22;31183;47.404;8.500;2024-03-07T10:10:17;5.40;99.90
45435;DHT22;31183;47.404;8.500;2024-03-07T10:12:44;5.40;99.90
45435;DHT22;31183;47.404;8.500;2024-03-07T10:15:11;5.40;99.90
45435;DHT22;31183;47.404;8.500;2024-03-07T10:17:40;5.40;99.90
45435;DHT22;31183;47.404;8.500;2024-03-07T10:20:12;5.50;99.90
45435;DHT22;31183;47.404;8.500;2024-03-07T10:22:41;5.60;99.90
45435;DHT22;31183;47.404;8.500;2024-03-07T10:25:07;5.70;99.90
45435;DHT22;31183;47.404;8.500;2024-03-07T10:27:36;5.70;99.90
45435;DHT22;31183;47.404;8.500;2024-03-07T10:30:03;5.70;99.90
45435;DHT22;31183;47.404;8.500;2024-03-07T10:32:30;5.70;99.90
45435;DHT22;31183;47.404;8.500;2024-03-07T10:34:58;5.80;99.90
45435;DHT22;31183;47.404;8.500;2024-03-07T10:37:25;5.80;99.90
45435;DHT22;31183;47.404;8.500;2024-03-07T10:39:52;5.70;99.90
45435;DHT22;31183;47.404;8.500;2024-03-07T10:42:19;5.70;99.90
45435;DHT22;31183;47.404;8.500;2024-03-07T10:44:49;5.70;99.90
45435;DHT22;31183;47.404;8.500;2024-03-07T10:47:20;5.70;99.90
45435;DHT22;31183;47.404;8.500;2024-03-07T10:50:04;5.70;99.90
45435;DHT22;31183;47.404;8.500;2024-03-07T10:52:41;5.80;99.90
45435;DHT22;31183;47.404;8.500;2024-03-07T10:55:26;5.80;99.90
45435;DHT22;31183;47.404;8.500;2024-03-07T10:58:02;5.90;99.90
45435;DHT22;31183;47.404;8.500;2024-03-07T11:00:33;5.90;99.90
45435;DHT22;31183;47.404;8.500;2024-03-07T11:03:04;5.80;99.90
45435;DHT22;31183;47.404;8.500;2024-03-07T11:05:35;5.70;99.90
45435;DHT22;31183;47.404;8.500;2024-03-07T11:08:03;5.70;99.90
45435;DHT22;31183;47.404;8.500;2024-03-07T11:10:40;5.80;99.90
45435;DHT22;31183;47.404;8.500;2024-03-07T11:13:09;5.80;99.90
45435;DHT22;31183;47.404;8.500;2024-03-07T11:15:42;5.70;99.90
45435;DHT22;31183;47.404;8.500;2024-03-07T11:18:09;5.70;99.90
45435;DHT22;31183;47.404;8.500;2024-03-07T11:20:40;5.80;99.90
45435;DHT22;31183;47.404;8.500;2024-03-07T11:26:04;5.80;99.90
45435;DHT22;31183;47.404;8.500;2024-03-07T11:28:40;5.80;99.90
45435;DHT22;31183;47.404;8.500;2024-03-07T11:31:13;5.90;99.90
45435;DHT22;31183;47.404;8.500;2024-03-07T11:33:40;5.90;99.90
45435;DHT22;31183;47.404;8.500;2024-03-07T11:36:08;6.00;99.90
45435;DHT22;31183;47.404;8.500;2024-03-07T11:38:45;6.00;99.90
45435;DHT22;31183;47.404;8.500;2024-03-07T11:41:13;6.00;99.90
45435;DHT22;31183;47.404;8.500;2024-03-07T11:43:40;6.10;99.90
45435;DHT22;31183;47.404;8.500;2024-03-07T11:46:09;6.00;99.90
45435;DHT22;31183;47.404;8.500;2024-03-07T11:48:41;6.10;99.90
45435;DHT22;31183;47.404;8.500;2024-03-07T11:51:12;6.20;99.90
45435;DHT22;31183;47.404;8.500;2024-03-07T11:53:39;6.20;99.90
45435;DHT22;31183;47.404;8.500;2024-03-07T11:56:07;6.20;99.90
45435;DHT22;31183;47.404;8.500;2024-03-07T11:58:39;6.20;99.90
45435;DHT22;31183;47.404;8.500;2024-03-07T12:01:08;6.20;99.90
45435;DHT22;31183;47.404;8.500;2024-03-07T12:03:40;6.20;99.90
45435;DHT22;31183;47.404;8.500;2024-03-07T12:06:08;6.20;99.90
45435;DHT22;31183;47.404;8.500;2024-03-07T12:08:39;6.30;99.90
45435;DHT22;31183;47.404;8.500;2024-03-07T12:11:08;6.30;99.90
45435;DHT22;31183;47.404;8.500;2024-03-07T12:13:39;6.20;99.90
45435;DHT22;31183;47.404;8.500;2024-03-07T12:16:07;6.20;99.90
45435;DHT22;31183;47.404;8.500;2024-03-07T12:18:35;6.30;99.90
45435;DHT22;31183;47.404;8.500;2024-03-07T12:21:03;6.30;99.90
45435;DHT22;31183;47.404;8.500;2024-03-07T12:23:33;6.20;99.90
45435;DHT22;31183;47.404;8.500;2024-03-07T12:26:02;6.20;99.90
45435;DHT22;31183;47.404;8.500;2024-03-07T12:28:29;6.20;99.90
45435;DHT22;31183;47.404;8.500;2024-03-07T12:31:00;6.20;99.90
45435;DHT22;31183;47.404;8.500;2024-03-07T12:33:31;6.20;99.90
45435;DHT22;31183;47.404;8.500;2024-03-07T12:36:02;6.20;99.90
45435;DHT22;31183;47.404;8.500;2024-03-07T12:38:33;6.20;99.90
45435;DHT22;31183;47.404;8.500;2024-03-07T12:41:08;6.10;99.90
45435;DHT22;31183;47.404;8.500;2024-03-07T12:43:40;6.10;99.90
45435;DHT22;31183;47.404;8.500;2024-03-07T12:46:13;6.10;99.90
45435;DHT22;31183;47.404;8.500;2024-03-07T12:48:41;6.10;99.90
45435;DHT22;31183;47.404;8.500;2024-03-07T12:51:11;6.10;99.90
45435;DHT22;31183;47.404;8.500;2024-03-07T12:53:42;6.20;99.90
45435;DHT22;31183;47.404;8.500;2024-03-07T12:56:09;6.20;99.90
45435;DHT22;31183;47.404;8.500;2024-03-07T12:58:35;6.20;99.90
45435;DHT22;31183;47.404;8.500;2024-03-07T13:01:02;6.20;99.90
45435;DHT22;31183;47.404;8.500;2024-03-07T13:03:29;6.30;99.90
45435;DHT22;31183;47.404;8.500;2024-03-07T13:05:59;6.20;99.90
45435;DHT22;31183;47.404;8.500;2024-03-07T13:08:28;6.30;99.90
45435;DHT22;31183;47.404;8.500;2024-03-07T13:10:58;6.40;99.90
45435;DHT22;31183;47.404;8.500;2024-03-07T13:13:26;6.40;99.90
45435;DHT22;31183;47.404;8.500;2024-03-07T13:15:53;6.40;99.90
45435;DHT22;31183;47.404;8.500;2024-03-07T13:18:21;6.40;99.90
45435;DHT22;31183;47.404;8.500;2024-03-07T13:20:48;6.40;99.90
45435;DHT22;31183;47.404;8.500;2024-03-07T13:23:15;6.40;99.90
45435;DHT22;31183;47.404;8.500;2024-03-07T13:25:42;6.30;99.90
45435;DHT22;31183;47.404;8.500;2024-03-07T13:28:14;6.30;99.90
45435;DHT22;31183;47.404;8.500;2024-03-07T13:30:49;6.40;99.90
45435;DHT22;31183;47.404;8.500;2024-03-07T13:33:16;6.40;99.90
45435;DHT22;31183;47.404;8.500;2024-03-07T13:35:44;6.40;99.90
45435;DHT22;31183;47.404;8.500;2024-03-07T13:38:11;6.40;99.90
45435;DHT22;31183;47.404;8.500;2024-03-07T13:40:40;6.40;99.90
45435;DHT22;31183;47.404;8.500;2024-03-07T13:43:07;6.40;99.90
45435;DHT22;31183;47.404;8.500;2024-03-07T13:45:34;6.40;99.90
45435;DHT22;31183;47.404;8.500;2024-03-07T13:48:10;6.40;99.90
45435;DHT22;31183;47.404;8.500;2024-03-07T13:50:40;6.40;99.90
45435;DHT22;31183;47.404;8.500;2024-03-07T13:53:27;6.40;99.90
45435;DHT22;31183;47.404;8.500;2024-03-07T14:02:02;6.40;99.90
45435;DHT22;31183;47.404;8.500;2024-03-07T14:07:40;6.30;99.90
45435;DHT22;31183;47.404;8.500;2024-03-07T14:10:53;6.30;99.90
45435;DHT22;31183;47.404;8.500;2024-03-07T14:13:42;6.30;99.90
45435;DHT22;31183;47.404;8.500;2024-03-07T14:19:14;6.40;99.90
45435;DHT22;31183;47.404;8.500;2024-03-07T14:24:50;6.40;99.90
45435;DHT22;31183;47.404;8.500;2024-03-07T14:27:40;6.40;99.90
45435;DHT22;31183;47.404;8.500;2024-03-07T14:30:36;6.50;99.90
45435;DHT22;31183;47.404;8.500;2024-03-07T14:33:08;6.40;99.90
45435;DHT22;31183;47.404;8.500;2024-03-07T14:36:02;6.40;99.90
45435;DHT22;31183;47.404;8.500;2024-03-07T14:38:44;6.40;99.90
45435;DHT22;31183;47.404;8.500;2024-03-07T14:41:16;6.40;99.90
45435;DHT22;31183;47.404;8.500;2024-03-07T14:43:44;6.40;99.90
45435;DHT22;31183;47.404;8.500;2024-03-07T14:46:14;6.40;99.90
45435;DHT22;31183;47.404;8.500;2024-03-07T14:48:41;6.50;99.90
45435;DHT22;31183;47.404;8.500;2024-03-07T14:51:09;6.50;99.90
45435;DHT22;31183;47.404;8.500;2024-03-07T14:53:40;6.50;99.90
45435;DHT22;31183;47.404;8.500;2024-03-07T14:56:09;6.50;99.90
45435;DHT22;31183;47.404;8.500;2024-03-07T14:58:37;6.40;99.90
45435;DHT22;31183;47.404;8.500;2024-03-07T15:01:05;6.40;99.90
45435;DHT22;31183;47.404;8.500;2024-03-07T15:03:33;6.50;99.90
45435;DHT22;31183;47.404;8.500;2024-03-07T15:06:00;6.50;99.90
45435;DHT22;31183;47.404;8.500;2024-03-07T15:08:29;6.50;99.90
45435;DHT22;31183;47.404;8.500;2024-03-07T15:11:00;6.50;99.90
45435;DHT22;31183;47.404;8.500;2024-03-07T15:13:35;6.50;99.90
45435;DHT22;31183;47.404;8.500;2024-03-07T15:16:02;6.60;99.90
45435;DHT22;31183;47.404;8.500;2024-03-07T15:18:29;6.60;99.90
45435;DHT22;31183;47.404;8.500;2024-03-07T15:20:55;6.60;99.90
45435;DHT22;31183;47.404;8.500;2024-03-07T15:23:22;6.50;99.90
45435;DHT22;31183;47.404;8.500;2024-03-07T15:25:49;6.50;99.90
45435;DHT22;31183;47.404;8.500;2024-03-07T15:28:16;6.40;99.90
45435;DHT22;31183;47.404;8.500;2024-03-07T15:30:43;6.50;99.90
45435;DHT22;31183;47.404;8.500;2024-03-07T15:33:09;6.50;99.90
45435;DHT22;31183;47.404;8.500;2024-03-07T15:35:36;6.50;99.90
45435;DHT22;31183;47.404;8.500;2024-03-07T15:38:03;6.50;99.90
45435;DHT22;31183;47.404;8.500;2024-03-07T15:40:31;6.50;99.90
45435;DHT22;31183;47.404;8.500;2024-03-07T15:42:58;6.50;99.90
45435;DHT22;31183;47.404;8.500;2024-03-07T15:45:25;6.50;99.90
45435;DHT22;31183;47.404;8.500;2024-03-07T15:47:53;6.60;99.90
45435;DHT22;31183;47.404;8.500;2024-03-07T15:50:21;6.50;99.90
45435;DHT22;31183;47.404;8.500;2024-03-07T15:52:50;6.50;99.90
45435;DHT22;31183;47.404;8.500;2024-03-07T15:55:21;6.60;99.90
45435;DHT22;31183;47.404;8.500;2024-03-07T15:57:55;6.60;99.90
45435;DHT22;31183;47.404;8.500;2024-03-07T16:00:24;6.50;99.90
45435;DHT22;31183;47.404;8.500;2024-03-07T16:02:58;6.50;99.90
45435;DHT22;31183;47.404;8.500;2024-03-07T16:05:28;6.60;99.90
45435;DHT22;31183;47.404;8.500;2024-03-07T16:07:55;6.60;99.90
45435;DHT22;31183;47.404;8.500;2024-03-07T16:10:29;6.70;99.90
45435;DHT22;31183;47.404;8.500;2024-03-07T16:12:58;6.70;99.90